createdAt,value
2024-05-09T00:02:06.900Z,38.82
2024-05-09T00:04:33.437Z,38.77
2024-05-09T00:06:59.853Z,38.73
2024-05-09T00:09:26.223Z,38.81
2024-05-09T00:11:52.674Z,38.71
2024-05-09T00:14:19.190Z,38.82
2024-05-09T00:16:46.021Z,38.76
2024-05-09T00:19:12.537Z,38.71
2024-05-09T00:21:43.228Z,38.70
2024-05-09T00:24:09.587Z,38.77
2024-05-09T00:26:36.009Z,38.82
2024-05-09T00:29:02.624Z,38.85
2024-05-09T00:31:29.076Z,38.88
2024-05-09T00:33:55.649Z,38.86
2024-05-09T00:36:22.109Z,38.85
2024-05-09T00:38:48.486Z,38.76
2024-05-09T00:41:17.136Z,38.92
2024-05-09T00:43:45.347Z,38.85
2024-05-09T00:46:11.822Z,38.92
2024-05-09T00:48:38.267Z,38.94
2024-05-09T00:51:05.202Z,38.85
2024-05-09T00:53:32.286Z,38.85
2024-05-09T00:55:58.861Z,39.04
2024-05-09T00:58:26.025Z,38.91
2024-05-09T01:00:52.526Z,38.82
2024-05-09T01:03:19.353Z,38.84
2024-05-09T01:05:46.334Z,38.92
2024-05-09T01:08:12.908Z,38.95
2024-05-09T01:10:41.745Z,38.92
2024-05-09T01:13:10.371Z,38.96
2024-05-09T01:15:36.744Z,38.95
2024-05-09T01:18:11.029Z,39.04
2024-05-09T01:20:42.322Z,38.74
2024-05-09T01:23:11.766Z,38.73
2024-05-09T01:25:38.498Z,38.85
2024-05-09T01:28:05.490Z,38.95
2024-05-09T01:30:35.366Z,38.83
2024-05-09T01:33:08.780Z,39.01
2024-05-09T01:35:37.145Z,38.89
2024-05-09T01:38:04.113Z,38.91
2024-05-09T01:40:37.723Z,38.98
2024-05-09T01:43:10.706Z,38.95
2024-05-09T01:45:38.451Z,38.94
2024-05-09T01:48:05.527Z,38.95
2024-05-09T01:50:38.280Z,38.79
2024-05-09T01:53:08.835Z,38.82
2024-05-09T01:55:35.406Z,38.92
2024-05-09T01:58:01.768Z,38.87
2024-05-09T02:00:38.074Z,38.94
2024-05-09T02:03:14.463Z,38.76
2024-05-09T02:05:44.086Z,38.75
2024-05-09T02:08:14.600Z,38.85
2024-05-09T02:10:41.151Z,38.86
2024-05-09T02:13:07.777Z,38.77
2024-05-09T02:15:34.161Z,38.66
2024-05-09T02:18:00.767Z,38.79
2024-05-09T02:20:34.211Z,38.91
2024-05-09T02:23:04.863Z,38.94
2024-05-09T02:25:32.005Z,38.98
2024-05-09T02:27:58.544Z,38.92
2024-05-09T02:30:34.939Z,38.90
2024-05-09T02:33:06.226Z,38.94
2024-05-09T02:35:32.969Z,38.77
2024-05-09T02:37:59.638Z,38.86
2024-05-09T02:40:35.057Z,38.88
2024-05-09T02:43:04.173Z,38.83
2024-05-09T02:45:30.704Z,38.95
2024-05-09T02:47:57.433Z,38.80
2024-05-09T02:50:33.024Z,38.87
2024-05-09T02:53:04.312Z,38.80
2024-05-09T02:55:30.826Z,38.79
2024-05-09T02:57:57.234Z,38.83
2024-05-09T03:00:29.831Z,38.84
2024-05-09T03:03:04.357Z,38.85
2024-05-09T03:05:31.173Z,38.79
2024-05-09T03:07:57.667Z,38.83
2024-05-09T03:10:28.502Z,38.86
2024-05-09T03:12:55.658Z,38.83
2024-05-09T03:15:22.434Z,38.73
2024-05-09T03:17:49.009Z,38.88
2024-05-09T03:20:23.216Z,38.84
2024-05-09T03:22:52.705Z,38.74
2024-05-09T03:25:20.409Z,38.66
2024-05-09T03:27:46.785Z,38.81
2024-05-09T03:30:25.614Z,38.84
2024-05-09T03:32:57.428Z,38.80
2024-05-09T03:35:23.982Z,38.76
2024-05-09T03:37:50.509Z,38.80
2024-05-09T03:40:23.414Z,38.73
2024-05-09T03:42:52.542Z,38.78
2024-05-09T03:45:18.942Z,38.73
2024-05-09T03:47:45.611Z,38.67
2024-05-09T03:50:18.058Z,38.88
2024-05-09T03:52:52.004Z,38.83
2024-05-09T03:55:18.635Z,38.77
2024-05-09T03:57:44.971Z,38.78
2024-05-09T04:00:17.900Z,38.89
2024-05-09T04:02:52.062Z,38.92
2024-05-09T04:05:18.580Z,38.80
2024-05-09T04:07:45.024Z,38.85
2024-05-09T04:10:20.678Z,38.94
2024-05-09T04:12:52.926Z,38.86
2024-05-09T04:15:19.303Z,38.81
2024-05-09T04:17:50.995Z,39.01
2024-05-09T04:20:28.778Z,38.86
2024-05-09T04:23:02.948Z,38.75
2024-05-09T04:25:29.381Z,38.87
2024-05-09T04:27:56.039Z,38.68
2024-05-09T04:30:33.688Z,38.82
2024-05-09T04:33:04.888Z,38.72
2024-05-09T04:35:31.553Z,38.93
2024-05-09T04:37:58.094Z,38.87
2024-05-09T04:40:31.444Z,38.86
2024-05-09T04:43:01.485Z,39.03
2024-05-09T04:45:27.910Z,38.83
2024-05-09T04:47:54.452Z,38.82
2024-05-09T04:50:29.752Z,38.70
2024-05-09T04:53:02.356Z,38.69
2024-05-09T04:55:28.798Z,38.85
2024-05-09T04:57:55.161Z,38.84
2024-05-09T05:00:28.905Z,38.65
2024-05-09T05:03:05.263Z,38.87
2024-05-09T05:05:31.922Z,38.79
2024-05-09T05:07:58.372Z,38.68
2024-05-09T05:10:33.050Z,38.80
2024-05-09T05:13:21.601Z,38.68
2024-05-09T05:15:49.793Z,38.66
2024-05-09T05:18:16.654Z,38.78
2024-05-09T05:20:43.477Z,38.81
2024-05-09T05:23:11.309Z,38.54
2024-05-09T05:25:37.801Z,38.84
2024-05-09T05:28:04.654Z,38.52
2024-05-09T05:30:34.577Z,38.78
2024-05-09T05:33:01.649Z,38.65
2024-05-09T05:35:28.347Z,38.60
2024-05-09T05:37:54.846Z,38.62
2024-05-09T05:40:28.340Z,38.54
2024-05-09T05:43:02.616Z,38.61
2024-05-09T05:45:29.036Z,38.48
2024-05-09T05:47:55.713Z,38.45
2024-05-09T05:50:27.934Z,38.40
2024-05-09T05:53:01.744Z,38.49
2024-05-09T05:55:28.169Z,38.60
2024-05-09T05:57:54.543Z,38.46
2024-05-09T06:00:29.321Z,38.58
2024-05-09T06:03:02.106Z,38.36
2024-05-09T06:05:28.817Z,38.54
2024-05-09T06:07:55.362Z,38.45
2024-05-09T06:10:26.219Z,38.35
2024-05-09T06:13:01.074Z,38.49
2024-05-09T06:15:27.495Z,38.53
2024-05-09T06:17:54.142Z,38.51
2024-05-09T06:20:27.766Z,38.42
2024-05-09T06:23:02.194Z,38.52
2024-05-09T06:25:28.573Z,38.39
2024-05-09T06:27:55.107Z,38.37
2024-05-09T06:30:29.884Z,38.41
2024-05-09T06:33:05.203Z,38.61
2024-05-09T06:35:32.351Z,38.67
2024-05-09T06:37:58.964Z,38.70
2024-05-09T06:40:29.850Z,38.87
2024-05-09T06:43:02.783Z,38.67
2024-05-09T06:45:29.134Z,38.73
2024-05-09T06:47:55.623Z,38.87
2024-05-09T06:50:24.537Z,38.67
2024-05-09T06:52:54.452Z,38.58
2024-05-09T06:55:20.803Z,38.64
2024-05-09T06:57:47.309Z,38.65
2024-05-09T07:00:22.692Z,38.57
2024-05-09T07:02:56.788Z,38.53
2024-05-09T07:05:23.554Z,38.32
2024-05-09T07:07:50.094Z,38.49
2024-05-09T07:10:22.131Z,38.48
2024-05-09T07:12:55.111Z,38.49
2024-05-09T07:15:21.447Z,38.57
2024-05-09T07:17:48.001Z,38.49
2024-05-09T07:20:23.190Z,38.67
2024-05-09T07:22:54.346Z,38.71
2024-05-09T07:25:20.825Z,38.62
2024-05-09T07:27:47.199Z,38.58
2024-05-09T07:30:20.309Z,38.60
2024-05-09T07:32:54.045Z,38.66
2024-05-09T07:35:20.592Z,38.75
2024-05-09T07:37:47.095Z,38.62
2024-05-09T07:40:21.290Z,38.60
2024-05-09T07:42:54.161Z,38.73
2024-05-09T07:45:39.677Z,38.51
2024-05-09T07:53:36.343Z,38.45
2024-05-09T07:55:55.368Z,38.63
2024-05-09T07:58:26.712Z,38.38
2024-05-09T08:00:54.062Z,38.46
2024-05-09T08:03:20.528Z,38.52
2024-05-09T08:05:47.015Z,38.59
2024-05-09T08:08:13.444Z,38.60
2024-05-09T08:10:39.971Z,38.50
2024-05-09T08:13:06.623Z,38.39
2024-05-09T08:15:33.089Z,38.39
2024-05-09T08:18:00.005Z,38.21
2024-05-09T08:20:30.838Z,38.20
2024-05-09T08:23:00.229Z,38.10
2024-05-09T08:25:26.701Z,38.15
2024-05-09T08:27:53.252Z,38.09
2024-05-09T08:30:25.361Z,38.14
2024-05-09T08:32:59.052Z,38.07
2024-05-09T08:35:25.485Z,37.87
2024-05-09T08:37:53.163Z,37.98
2024-05-09T08:40:27.987Z,37.81
2024-05-09T08:43:00.553Z,37.90
2024-05-09T08:45:27.191Z,38.04
2024-05-09T08:47:53.840Z,37.99
2024-05-09T08:50:31.622Z,37.93
2024-05-09T08:53:04.626Z,37.88
2024-05-09T08:55:31.276Z,38.00
2024-05-09T08:57:59.004Z,38.17
2024-05-09T09:00:33.892Z,37.90
2024-05-09T09:03:04.051Z,38.04
2024-05-09T09:05:30.945Z,38.10
2024-05-09T09:07:57.465Z,38.37
2024-05-09T09:10:29.854Z,38.64
2024-05-09T09:12:59.833Z,38.83
2024-05-09T09:15:26.396Z,38.94
2024-05-09T09:17:57.265Z,38.52
2024-05-09T09:20:33.293Z,38.21
2024-05-09T09:23:02.567Z,38.17
2024-05-09T09:25:29.043Z,38.14
2024-05-09T09:27:55.530Z,38.13
2024-05-09T09:30:34.095Z,38.01
2024-05-09T09:33:03.520Z,38.11
2024-05-09T09:35:30.149Z,37.83
2024-05-09T09:37:56.529Z,37.72
2024-05-09T09:40:31.361Z,37.53
2024-05-09T09:42:59.675Z,37.36
2024-05-09T09:45:26.467Z,37.11
2024-05-09T09:47:55.321Z,36.71
2024-05-09T09:50:27.895Z,36.46
2024-05-09T09:53:00.566Z,36.54
2024-05-09T09:55:27.018Z,36.42
2024-05-09T09:57:54.179Z,36.42
2024-05-09T10:00:26.886Z,36.23
2024-05-09T10:02:56.976Z,36.22
2024-05-09T10:05:23.867Z,36.02
2024-05-09T10:07:50.412Z,36.06
2024-05-09T10:10:30.393Z,35.86
2024-05-09T10:13:02.195Z,35.92
2024-05-09T10:15:28.855Z,35.60
2024-05-09T10:18:04.666Z,35.56
2024-05-09T10:20:46.570Z,35.45
2024-05-09T10:23:25.812Z,35.47
2024-05-09T10:25:59.021Z,35.23
2024-05-09T10:28:29.535Z,35.27
2024-05-09T10:31:12.519Z,35.26
2024-05-09T10:33:45.670Z,35.48
2024-05-09T10:36:35.619Z,35.50
2024-05-09T10:39:02.071Z,35.57
2024-05-09T10:41:28.484Z,35.47
2024-05-09T10:43:54.841Z,35.54
2024-05-09T10:46:21.467Z,35.54
2024-05-09T10:48:48.847Z,35.45
2024-05-09T10:51:16.580Z,35.62
2024-05-09T10:53:43.774Z,35.60
2024-05-09T10:56:10.413Z,35.46
2024-05-09T10:58:36.850Z,35.38
2024-05-09T11:01:06.748Z,35.45
2024-05-09T11:03:34.027Z,35.65
2024-05-09T11:06:00.611Z,35.58
2024-05-09T11:08:26.970Z,35.60
2024-05-09T11:10:53.992Z,35.86
2024-05-09T11:13:32.805Z,35.51
2024-05-09T11:15:59.723Z,35.45
2024-05-09T11:18:30.424Z,35.54
2024-05-09T11:20:59.644Z,35.37
2024-05-09T11:23:27.182Z,35.23
2024-05-09T11:25:57.444Z,35.28
2024-05-09T11:28:24.154Z,35.30
2024-05-09T11:30:51.660Z,35.34
2024-05-09T11:33:18.742Z,35.31
2024-05-09T11:35:46.264Z,35.38
2024-05-09T11:38:12.884Z,35.27
2024-05-09T11:40:39.356Z,35.26
2024-05-09T11:43:06.159Z,35.29
2024-05-09T11:45:32.733Z,35.15
2024-05-09T11:47:59.334Z,35.04
2024-05-09T11:50:30.199Z,35.06
2024-05-09T11:53:01.226Z,35.02
2024-05-09T11:55:28.537Z,35.09
2024-05-09T11:57:55.368Z,35.14
2024-05-09T12:00:29.554Z,35.10
2024-05-09T12:03:04.326Z,35.09
2024-05-09T12:05:30.832Z,34.89
2024-05-09T12:07:57.374Z,34.92
2024-05-09T12:12:53.510Z,34.52
2024-05-09T12:15:19.882Z,34.76
2024-05-09T12:17:49.475Z,34.80
2024-05-09T12:20:25.049Z,34.93
2024-05-09T12:22:55.029Z,34.93
2024-05-09T12:25:21.608Z,34.94
2024-05-09T12:27:48.059Z,35.11
2024-05-09T12:30:20.841Z,35.25
2024-05-09T12:32:55.256Z,34.97
2024-05-09T12:35:21.667Z,34.92
2024-05-09T12:37:48.075Z,34.90
2024-05-09T12:40:22.890Z,34.95
2024-05-09T12:42:57.266Z,34.91
2024-05-09T12:45:23.647Z,34.87
2024-05-09T12:47:50.163Z,35.11
2024-05-09T12:50:24.952Z,34.91
2024-05-09T12:52:57.566Z,34.98
2024-05-09T12:55:24.056Z,34.95
2024-05-09T12:57:50.651Z,34.88
2024-05-09T13:00:23.902Z,34.97
2024-05-09T13:02:54.693Z,34.89
2024-05-09T13:05:21.345Z,34.86
2024-05-09T13:07:47.882Z,34.92
2024-05-09T13:10:19.979Z,34.88
2024-05-09T13:12:52.146Z,34.97
2024-05-09T13:15:18.551Z,34.95
2024-05-09T13:17:45.051Z,34.68
2024-05-09T13:20:18.927Z,34.67
2024-05-09T13:22:52.573Z,34.42
2024-05-09T13:25:18.976Z,34.46
2024-05-09T13:27:45.442Z,34.33
2024-05-09T13:30:17.694Z,34.33
2024-05-09T13:32:48.330Z,34.73
2024-05-09T13:35:14.695Z,34.97
2024-05-09T13:37:41.078Z,35.34
2024-05-09T13:40:11.996Z,35.09
2024-05-09T13:42:40.719Z,35.59
2024-05-09T13:45:07.577Z,35.61
2024-05-09T13:47:34.123Z,36.04
2024-05-09T13:50:00.712Z,36.21
2024-05-09T13:52:30.061Z,36.16
2024-05-09T13:54:56.537Z,36.17
2024-05-09T13:57:23.120Z,36.25
2024-05-09T13:59:49.591Z,36.32
2024-05-09T14:02:16.074Z,36.45
2024-05-09T14:04:43.176Z,36.59
2024-05-09T14:07:10.318Z,36.79
2024-05-09T14:09:36.809Z,36.87
2024-05-09T14:12:03.435Z,36.86
2024-05-09T14:14:29.806Z,36.78
2024-05-09T14:16:56.410Z,36.62
2024-05-09T14:19:22.852Z,37.01
2024-05-09T14:21:49.239Z,37.35
2024-05-09T14:24:15.840Z,37.42
2024-05-09T14:26:42.168Z,37.29
2024-05-09T14:29:08.546Z,37.01
2024-05-09T14:31:37.873Z,36.68
2024-05-09T14:34:05.614Z,36.70
2024-05-09T14:36:33.041Z,36.81
2024-05-09T14:38:59.516Z,36.78
2024-05-09T14:41:25.851Z,36.57
2024-05-09T14:43:52.218Z,36.63
2024-05-09T14:46:18.653Z,36.68
2024-05-09T14:48:45.275Z,36.76
2024-05-09T14:51:11.774Z,36.69
2024-05-09T14:53:38.222Z,36.69
2024-05-09T14:56:05.045Z,36.82
2024-05-09T14:58:31.619Z,36.67
2024-05-09T15:00:58.116Z,36.57
2024-05-09T15:03:24.647Z,36.58
2024-05-09T15:05:51.894Z,36.76
2024-05-09T15:08:19.285Z,36.54
2024-05-09T15:10:46.384Z,36.76
2024-05-09T15:13:15.570Z,36.65
2024-05-09T15:15:42.940Z,36.72
2024-05-09T15:18:09.541Z,36.67
2024-05-09T15:20:37.328Z,36.76
2024-05-09T15:23:04.846Z,36.79
2024-05-09T15:25:32.535Z,36.76
2024-05-09T15:27:58.947Z,36.69
2024-05-09T15:30:31.611Z,36.94
2024-05-09T15:33:00.974Z,36.93
2024-05-09T15:35:27.784Z,37.01
2024-05-09T15:37:54.184Z,37.66
2024-05-09T15:40:30.574Z,37.16
2024-05-09T15:43:04.350Z,37.21
2024-05-09T15:45:30.930Z,37.03
2024-05-09T15:47:57.595Z,36.89
2024-05-09T15:50:35.129Z,36.96
2024-05-09T15:53:05.606Z,36.86
2024-05-09T15:55:33.391Z,36.78
2024-05-09T15:58:00.525Z,36.80
2024-05-09T16:00:36.078Z,36.62
2024-05-09T16:03:06.140Z,36.72
2024-05-09T16:05:32.673Z,36.82
2024-05-09T16:07:59.334Z,36.66
2024-05-09T16:10:31.487Z,36.64
2024-05-09T16:12:59.473Z,36.70
2024-05-09T16:15:25.853Z,36.64
2024-05-09T16:17:52.520Z,36.58
2024-05-09T16:20:29.629Z,36.61
2024-05-09T16:23:04.667Z,36.56
2024-05-09T16:25:31.143Z,36.37
2024-05-09T16:27:57.558Z,36.48
2024-05-09T16:30:31.537Z,36.34
2024-05-09T16:33:01.668Z,36.31
2024-05-09T16:35:28.407Z,36.47
2024-05-09T16:37:54.808Z,36.34
2024-05-09T16:40:29.754Z,36.33
2024-05-09T16:43:03.670Z,36.53
2024-05-09T16:45:30.346Z,36.50
2024-05-09T16:47:56.907Z,36.41
2024-05-09T16:50:29.330Z,36.57
2024-05-09T16:52:59.462Z,36.46
2024-05-09T16:55:25.980Z,36.43
2024-05-09T16:57:52.426Z,36.48
2024-05-09T17:00:30.659Z,36.57
2024-05-09T17:03:05.489Z,36.46
2024-05-09T17:05:32.109Z,36.47
2024-05-09T17:07:58.546Z,36.42
2024-05-09T17:10:31.356Z,36.20
2024-05-09T17:12:59.931Z,36.18
2024-05-09T17:15:26.315Z,36.18
2024-05-09T17:17:52.735Z,36.47
2024-05-09T17:20:29.265Z,36.24
2024-05-09T17:23:00.174Z,36.25
2024-05-09T17:25:26.787Z,36.34
2024-05-09T17:27:53.416Z,36.22
2024-05-09T17:30:28.621Z,36.04
2024-05-09T17:32:59.241Z,36.22
2024-05-09T17:35:25.720Z,36.29
2024-05-09T17:37:52.124Z,36.14
2024-05-09T17:40:27.378Z,36.26
2024-05-09T17:42:59.116Z,35.94
2024-05-09T17:45:25.493Z,36.24
2024-05-09T17:47:52.171Z,35.99
2024-05-09T17:50:26.702Z,35.85
2024-05-09T17:52:57.445Z,36.05
2024-05-09T17:55:23.884Z,35.83
2024-05-09T17:57:50.377Z,35.88
2024-05-09T18:00:24.674Z,35.79
2024-05-09T18:03:00.428Z,35.87
2024-05-09T18:05:28.700Z,35.97
2024-05-09T18:07:56.708Z,35.69
2024-05-09T18:10:29.798Z,35.82
2024-05-09T18:13:02.182Z,35.83
2024-05-09T18:15:28.632Z,35.78
2024-05-09T18:17:55.115Z,35.79
2024-05-09T18:20:32.182Z,35.80
2024-05-09T18:23:06.459Z,35.80
2024-05-09T18:25:32.894Z,35.95
2024-05-09T18:28:01.106Z,35.78
2024-05-09T18:30:32.519Z,35.89
2024-05-09T18:33:01.771Z,35.97
2024-05-09T18:35:28.327Z,35.96
2024-05-09T18:37:54.760Z,35.99
2024-05-09T18:40:32.733Z,35.97
2024-05-09T18:43:12.303Z,35.98
2024-05-09T18:45:39.202Z,35.93
2024-05-09T18:48:07.401Z,35.94
2024-05-09T18:50:38.228Z,36.00
2024-05-09T18:53:06.809Z,35.96
2024-05-09T18:55:33.288Z,35.86
2024-05-09T18:58:00.013Z,35.95
2024-05-09T19:00:33.793Z,36.01
2024-05-09T19:03:04.659Z,36.08
2024-05-09T19:05:31.986Z,36.03
2024-05-09T19:07:59.319Z,36.06
2024-05-09T19:10:29.016Z,36.07
2024-05-09T19:13:00.179Z,36.14
2024-05-09T19:15:26.754Z,35.98
2024-05-09T19:17:53.249Z,36.27
2024-05-09T19:20:25.514Z,36.14
2024-05-09T19:22:58.242Z,36.14
2024-05-09T19:25:24.597Z,36.29
2024-05-09T19:27:51.000Z,36.08
2024-05-09T19:30:28.922Z,36.15
2024-05-09T19:33:02.617Z,36.12
2024-05-09T19:35:29.045Z,35.99
2024-05-09T19:37:55.508Z,36.01
2024-05-09T19:40:28.903Z,35.99
2024-05-09T19:42:58.596Z,35.96
2024-05-09T19:45:25.079Z,36.09
2024-05-09T19:47:51.685Z,36.14
2024-05-09T19:50:26.613Z,36.24
2024-05-09T19:52:59.145Z,36.63
2024-05-09T19:55:25.556Z,36.67
2024-05-09T19:57:52.041Z,36.92
2024-05-09T20:00:25.961Z,36.82
2024-05-09T20:02:55.951Z,36.91
2024-05-09T20:05:22.818Z,36.83
2024-05-09T20:07:49.458Z,36.94
2024-05-09T20:10:23.349Z,36.86
2024-05-09T20:12:53.466Z,36.94
2024-05-09T20:15:19.880Z,36.76
2024-05-09T20:17:46.398Z,36.82
2024-05-09T20:20:23.486Z,36.92
2024-05-09T20:22:55.103Z,36.88
2024-05-09T20:25:21.588Z,36.73
2024-05-09T20:27:48.023Z,36.77
2024-05-09T20:30:20.810Z,36.78
2024-05-09T20:32:51.495Z,36.93
2024-05-09T20:35:17.905Z,36.88
2024-05-09T20:37:44.275Z,36.99
2024-05-09T20:40:18.165Z,36.87
2024-05-09T20:42:51.345Z,36.74
2024-05-09T20:45:17.785Z,36.85
2024-05-09T20:47:44.225Z,36.71
2024-05-09T20:50:20.253Z,36.82
2024-05-09T20:52:54.691Z,36.75
2024-05-09T20:55:21.484Z,36.83
2024-05-09T20:57:48.354Z,36.76
2024-05-09T21:00:18.535Z,36.80
2024-05-09T21:02:45.791Z,36.75
2024-05-09T21:05:13.266Z,36.65
2024-05-09T21:07:39.763Z,36.80
2024-05-09T21:10:15.122Z,36.82
2024-05-09T21:12:42.430Z,36.79
2024-05-09T21:15:08.803Z,36.71
2024-05-09T21:17:35.303Z,36.69
2024-05-09T21:20:02.870Z,36.78
2024-05-09T21:22:29.278Z,36.89
2024-05-09T21:24:55.641Z,36.82
2024-05-09T21:27:22.135Z,36.73
2024-05-09T21:29:48.498Z,36.75
2024-05-09T21:32:14.863Z,36.86
2024-05-09T21:34:41.338Z,36.62
2024-05-09T21:37:07.866Z,36.62
2024-05-09T21:39:34.356Z,36.71
2024-05-09T21:42:01.717Z,36.65
2024-05-09T21:44:30.930Z,36.71
2024-05-09T21:46:57.354Z,36.75
2024-05-09T21:49:23.794Z,36.69
2024-05-09T21:51:50.297Z,36.72
2024-05-09T21:54:16.701Z,36.60
2024-05-09T21:56:43.101Z,36.43
2024-05-09T21:59:09.484Z,36.53
2024-05-09T22:01:35.951Z,36.58
2024-05-09T22:04:02.688Z,36.59
2024-05-09T22:06:29.300Z,36.58
2024-05-09T22:08:55.654Z,36.57
2024-05-09T22:11:22.002Z,36.59
2024-05-09T22:13:48.397Z,36.54
2024-05-09T22:16:14.765Z,36.48
2024-05-09T22:18:41.277Z,36.50
2024-05-09T22:21:07.671Z,36.62
2024-05-09T22:23:34.222Z,36.58
2024-05-09T22:26:00.590Z,36.48
2024-05-09T22:28:27.206Z,36.47
2024-05-09T22:30:55.148Z,36.38
2024-05-09T22:33:21.744Z,36.13
2024-05-09T22:35:48.257Z,36.29
2024-05-09T22:38:14.766Z,36.31
2024-05-09T22:40:47.432Z,36.38
2024-05-09T22:43:20.688Z,36.47
2024-05-09T22:45:48.704Z,36.40
2024-05-09T22:48:15.342Z,36.23
2024-05-09T22:50:41.991Z,36.51
2024-05-09T22:53:08.404Z,36.49
2024-05-09T22:55:34.746Z,36.39
2024-05-09T22:58:01.222Z,36.42
2024-05-09T23:00:31.703Z,36.36
2024-05-09T23:03:02.474Z,36.38
2024-05-09T23:05:29.240Z,36.33
2024-05-09T23:07:55.873Z,36.35
2024-05-09T23:10:30.845Z,36.29
2024-05-09T23:13:01.876Z,36.43
2024-05-09T23:15:28.572Z,36.44
2024-05-09T23:17:55.207Z,36.28
2024-05-09T23:20:28.862Z,36.32
2024-05-09T23:23:00.288Z,36.43
2024-05-09T23:25:26.689Z,36.36
2024-05-09T23:27:53.275Z,36.76
2024-05-09T23:30:29.160Z,36.96
2024-05-09T23:33:03.576Z,36.95
2024-05-09T23:35:30.014Z,36.93
2024-05-09T23:37:56.363Z,36.92
2024-05-09T23:40:23.403Z,36.91
2024-05-09T23:42:50.408Z,36.94
2024-05-09T23:45:16.773Z,36.99
2024-05-09T23:47:43.468Z,36.94
2024-05-09T23:50:16.725Z,36.86
2024-05-09T23:52:49.864Z,37.05
2024-05-09T23:55:16.407Z,36.98
2024-05-09T23:57:42.858Z,36.96
